KCCB/CCB METAR and TAF weather

Enter ICAO airport designator
Station Type Date Time Source
KCCB METAR 2021/09/24 05:55 UTC NOAA

KCCB 240555Z AUTO 00000KT 10SM OVC090 21/13 A2994 RMK AO2


Station Type Date Time Source
KCCB Decoded METAR 2021/09/24 05:55 UTC NOAA

Station name not available
Sep 24, 2021 - 01:55 AM EDT / 2021.09.24 0555 UTC
Wind: Calm:0
Visibility: 10 mile(s):0
Sky conditions: overcast
Temperature: 69 F (21 C)
Dew Point: 55 F (13 C)
Relative Humidity: 60%
Pressure (altimeter): 29.94 in. Hg (1013 hPa)
ob: KCCB 240555Z AUTO 00000KT 10SM OVC090 21/13 A2994 RMK AO2
cycle: 6

Station Type Date Time Source
KCCB TAF UTC NOAA

Error!

Example: see airport list